Flight Track Log - Related Links

Times and Time Zones

All times are in EDT time to prevent confusion due to time zone crossing. See the HAL118 flight status page for this flight to view local times or setup timezone preferences in your user account.

Time Position Orientation Groundspeed Altitude Reporting Facility
EDT Latitude Longitude Course Direction KTS MPH feet Rate Location/Type
Thu 01:21:57 PM 21.3167 -157.9000 118° Southeast 180 207 1,100  Level Honolulu Center
Thu 01:22:57 PM 21.2667 -157.8667 148° Southeast 220 253 2,700 1,650 Climbing Honolulu Center
Thu 01:23:57 PM 21.2167 -157.8333 148° Southeast 260 299 4,400 2,150 Climbing Honolulu Center
Thu 01:24:00 PM 21.1882 -157.7205 113° Southeast  Level FlightAware Approximate
Thu 01:24:57 PM 21.1833 -157.7500 113° Southeast 260 299 7,000  Level Honolulu Center
Thu 01:25:00 PM 21.1547 -157.6487 126° Southeast  Level FlightAware Approximate
Thu 01:25:58 PM 21.1500 -157.6833 118° Southeast 280 322 9,200  Level Honolulu Center
Thu 01:26:00 PM 21.1109 -157.5830 126° Southeast  Level FlightAware Approximate
Thu 01:26:58 PM 21.1167 -157.6000 113° Southeast 310 357 10,900  Level Honolulu Center
Thu 01:27:00 PM 21.0733 -157.5133 118° Southeast  Level FlightAware Approximate
Thu 01:27:58 PM 21.0667 -157.5000 118° Southeast 350 403 12,100  Level Honolulu Center
Thu 01:28:58 PM 20.9833 -157.4333 143° Southeast 380 437 14,000 1,950 Climbing Honolulu Center
Thu 01:29:58 PM 20.9000 -157.3500 137° Southeast 380 437 16,000 1,800 Climbing Honolulu Center
Thu 01:30:58 PM 20.8333 -157.2833 137° Southeast 400 460 17,600 1,750 Climbing Honolulu Center
Thu 01:31:58 PM 20.7500 -157.2167 143° Southeast 400 460 19,500 1,700 Climbing Honolulu Center
Thu 01:32:58 PM 20.6500 -157.1167 137° Southeast 400 460 21,000 744 Climbing Honolulu Center
Thu 01:33:59 PM 20.5667 -157.0333 137° Southeast 400 460 21,000  Level Honolulu Center
Thu 01:34:59 PM 20.4833 -156.9667 143° Southeast 400 460 21,000  Level Honolulu Center
Thu 01:35:59 PM 20.4000 -156.8833 137° Southeast 400 460 21,000  Level Honolulu Center
Thu 01:36:59 PM 20.3167 -156.8000 137° Southeast 400 460 21,000  Level Honolulu Center
Thu 01:37:59 PM 20.2333 -156.7333 143° Southeast 400 460 21,000 -1,100 Level Honolulu Center
Thu 01:38:59 PM 20.1500 -156.6500 137° Southeast 400 460 18,800 -2,050 Descending Honolulu Center
Thu 01:39:59 PM 20.0833 -156.5833 137° Southeast 390 449 16,900 -2,150 Descending Honolulu Center
Thu 01:40:59 PM 20.0000 -156.5000 137° Southeast 370 426 14,500 -2,380 Descending Honolulu Center
Thu 01:42:00 PM 19.9333 -156.4333 137° Southeast 360 414 12,100 -1,835 Descending Honolulu Center
Thu 01:43:00 PM 19.8500 -156.3667 143° Southeast 320 368 10,800 -1,300 Descending Honolulu Center
Thu 01:44:00 PM 19.8000 -156.3167 137° Southeast 290 334 9,500 -1,550 Descending Honolulu Center
Thu 01:45:00 PM 19.7333 -156.2667 145° Southeast 280 322 7,700 -1,900 Descending Honolulu Center
Thu 01:46:00 PM 19.6833 -156.2000 129° Southeast 260 299 5,700 -2,000 Descending Honolulu Center

Login

Don't have an account? Register now (free) for customized features, flight alerts, and more!